createdAt,value
2022-08-02T00:00:50.696Z,97638.22
2022-08-02T00:03:23.414Z,97644.22
2022-08-02T00:05:53.146Z,97644.22
2022-08-02T00:08:21.262Z,97633.06
2022-08-02T00:10:47.882Z,97635.63
2022-08-02T00:13:14.432Z,97641.66
2022-08-02T00:15:40.963Z,97631.34
2022-08-02T00:18:07.566Z,97640.78
2022-08-02T00:20:34.224Z,97640.78
2022-08-02T00:23:00.747Z,97638.22
2022-08-02T00:25:27.299Z,97637.34
2022-08-02T00:27:53.839Z,97632.19
2022-08-02T00:30:20.374Z,97627.03
2022-08-02T00:32:46.924Z,97624.41
2022-08-02T00:35:13.501Z,97633.06
2022-08-02T00:37:41.267Z,97627.88
2022-08-02T00:40:11.740Z,97621.91
2022-08-02T00:42:39.218Z,97610.72
2022-08-02T00:45:06.389Z,97621.91
2022-08-02T00:47:32.934Z,97621.91
2022-08-02T00:49:59.512Z,97619.34
2022-08-02T00:52:26.111Z,97615.91
2022-08-02T00:54:52.703Z,97621.88
2022-08-02T00:57:19.308Z,97611.50
2022-08-02T00:59:45.905Z,97618.47
2022-08-02T01:02:12.737Z,97621.88
2022-08-02T01:04:39.441Z,97634.72
2022-08-02T01:07:11.995Z,97625.31
2022-08-02T01:09:41.675Z,97630.47
2022-08-02T01:12:08.940Z,97623.56
2022-08-02T01:14:36.253Z,97629.59
2022-08-02T01:17:12.235Z,97633.91
2022-08-02T01:19:47.900Z,97626.19
2022-08-02T01:23:04.371Z,97627.91
2022-08-02T01:26:07.129Z,97633.03
2022-08-02T01:28:39.701Z,97625.31
2022-08-02T01:31:24.496Z,97626.19
2022-08-02T01:33:57.096Z,97615.88
2022-08-02T01:36:23.648Z,97610.66
2022-08-02T01:38:50.616Z,97617.59
2022-08-02T01:41:19.767Z,97614.09
2022-08-02T01:43:46.944Z,97615.00
2022-08-02T01:46:14.307Z,97621.03
2022-08-02T01:48:41.552Z,97620.16
2022-08-02T01:51:08.753Z,97627.88
2022-08-02T01:53:35.289Z,97624.41
2022-08-02T01:56:02.964Z,97635.59
2022-08-02T01:58:31.752Z,97636.41
2022-08-02T02:00:58.551Z,97626.00
2022-08-02T02:03:25.391Z,97640.72
2022-08-02T02:05:53.773Z,97636.41
2022-08-02T02:08:26.937Z,97645.00
2022-08-02T02:10:54.784Z,97648.44
2022-08-02T02:13:21.312Z,97651.00
2022-08-02T02:16:00.791Z,97647.56
2022-08-02T02:18:27.851Z,97638.00
2022-08-02T02:20:54.403Z,97652.66
2022-08-02T02:23:24.439Z,97653.56
2022-08-02T02:25:53.048Z,97647.34
2022-08-02T02:28:24.426Z,97658.69
2022-08-02T02:30:53.373Z,97657.81
2022-08-02T02:33:24.221Z,97644.06
2022-08-02T02:35:54.301Z,97658.72
2022-08-02T02:38:20.883Z,97642.28
2022-08-02T02:40:47.824Z,97663.84
2022-08-02T02:43:14.746Z,97664.63
2022-08-02T02:45:41.420Z,97668.16
2022-08-02T02:48:08.473Z,97661.28
2022-08-02T02:53:10.998Z,97633.56
2022-08-02T02:55:37.541Z,97666.44
2022-08-02T02:58:04.053Z,97665.53
2022-08-02T03:00:49.386Z,97667.31
2022-08-02T03:03:15.943Z,97648.28
2022-08-02T03:05:46.173Z,97664.72
2022-08-02T03:08:13.176Z,97669.00
2022-08-02T03:10:39.714Z,97615.28
2022-08-02T03:13:06.311Z,97609.28
2022-08-02T03:15:32.912Z,97674.16
2022-08-02T03:17:59.426Z,97671.53
2022-08-02T03:20:26.009Z,97673.25
2022-08-02T03:22:52.540Z,97670.69
2022-08-02T03:25:19.219Z,97663.84
2022-08-02T03:27:45.804Z,97675.84
2022-08-02T03:30:13.131Z,97669.84
2022-08-02T03:32:41.140Z,97668.13
2022-08-02T03:35:09.252Z,97678.41
2022-08-02T03:37:36.305Z,97677.56
2022-08-02T03:40:03.221Z,97682.72
2022-08-02T03:42:29.805Z,97652.34
2022-08-02T03:44:56.376Z,97674.97
2022-08-02T03:47:23.237Z,97674.97
2022-08-02T03:49:50.340Z,97686.06
2022-08-02T03:52:16.962Z,97649.09
2022-08-02T03:54:45.365Z,97655.94
2022-08-02T03:57:12.593Z,97670.66
2022-08-02T03:59:42.994Z,97686.06
2022-08-02T04:02:09.951Z,97693.81
2022-08-02T04:04:36.840Z,97670.66
2022-08-02T04:07:03.532Z,97674.13
2022-08-02T04:09:34.181Z,97680.13
2022-08-02T04:12:00.732Z,97676.69
2022-08-02T04:14:27.276Z,97683.53
2022-08-02T04:16:59.328Z,97667.13
2022-08-02T04:19:34.168Z,97683.53
2022-08-02T04:22:04.788Z,97692.13
2022-08-02T04:24:41.920Z,97679.25
2022-08-02T04:27:48.906Z,97630.75
2022-08-02T04:29:55.360Z,97676.69
2022-08-02T04:32:21.944Z,97321.78
2022-08-02T04:35:17.834Z,97670.66
2022-08-02T04:37:35.109Z,97678.38
2022-08-02T04:40:01.688Z,97686.94
2022-08-02T04:42:28.332Z,97685.22
2022-08-02T04:44:54.931Z,97692.09
2022-08-02T04:47:40.008Z,97698.09
2022-08-02T04:50:08.417Z,97698.91
2022-08-02T04:52:34.969Z,97704.91
2022-08-02T04:55:01.476Z,97703.19
2022-08-02T04:57:52.599Z,97710.91
2022-08-02T05:00:19.715Z,97710.91
2022-08-02T05:02:46.287Z,97716.03
2022-08-02T05:05:13.160Z,97713.47
2022-08-02T05:07:39.708Z,97719.44
2022-08-02T05:10:06.651Z,97714.25
2022-08-02T05:12:33.176Z,97720.28
2022-08-02T05:14:59.717Z,97727.16
2022-08-02T05:17:26.232Z,97728.03
2022-08-02T05:19:52.777Z,97718.63
2022-08-02T05:22:19.316Z,97718.63
2022-08-02T05:24:45.899Z,97720.31
2022-08-02T05:27:21.565Z,97722.94
2022-08-02T05:29:53.115Z,97723.81
2022-08-02T05:32:20.900Z,97712.59
2022-08-02T05:34:50.425Z,97723.81
2022-08-02T05:37:17.092Z,97713.50
2022-08-02T05:39:55.729Z,97710.06
2022-08-02T05:42:23.282Z,97706.66
2022-08-02T05:44:49.864Z,97705.81
2022-08-02T05:47:16.454Z,97706.66
2022-08-02T05:49:43.088Z,97705.81
2022-08-02T05:52:11.567Z,97703.22
2022-08-02T05:54:55.520Z,97711.78
2022-08-02T05:57:43.687Z,97708.38
2022-08-02T06:00:14.160Z,97711.78
2022-08-02T06:02:43.529Z,97710.09
2022-08-02T06:05:14.790Z,97711.78
2022-08-02T06:07:44.518Z,97710.94
2022-08-02T06:10:14.952Z,97705.81
2022-08-02T06:12:51.255Z,97693.63
2022-08-02T06:15:19.012Z,97714.34
2022-08-02T06:17:46.311Z,97710.09
2022-08-02T06:20:15.077Z,97722.06
2022-08-02T06:22:43.718Z,97726.41
2022-08-02T06:25:11.871Z,97725.53
2022-08-02T06:28:01.664Z,97727.22
2022-08-02T06:30:28.374Z,97725.50
2022-08-02T06:32:54.988Z,97724.66
2022-08-02T06:35:21.643Z,97721.22
2022-08-02T06:37:57.002Z,97686.47
2022-08-02T06:40:31.482Z,97717.81
2022-08-02T06:43:18.717Z,97715.13
2022-08-02T06:45:45.367Z,97722.97
2022-08-02T06:48:11.990Z,97673.66
2022-08-02T06:50:38.894Z,97722.97
2022-08-02T06:53:06.225Z,97719.53
2022-08-02T06:55:32.774Z,97718.69
2022-08-02T06:58:10.384Z,97721.25
2022-08-02T07:00:36.908Z,97725.56
2022-08-02T07:03:04.105Z,97724.69
2022-08-02T07:05:30.629Z,97723.84
2022-08-02T07:07:57.196Z,97717.84
2022-08-02T07:10:23.978Z,97705.81
2022-08-02T07:12:50.642Z,97710.97
2022-08-02T07:15:17.159Z,97706.66
2022-08-02T07:17:43.724Z,97708.38
2022-08-02T07:20:10.412Z,97691.03
2022-08-02T07:22:37.026Z,97710.94
2022-08-02T07:25:03.857Z,97722.03
2022-08-02T07:27:30.493Z,97717.78
2022-08-02T07:29:57.323Z,97726.38
2022-08-02T07:32:25.665Z,97722.94
2022-08-02T07:34:55.194Z,97752.94
2022-08-02T07:37:54.057Z,97718.66
2022-08-02T07:40:13.868Z,97725.53
2022-08-02T07:42:43.031Z,97715.25
2022-08-02T07:45:10.274Z,97722.94
2022-08-02T07:47:38.412Z,97716.94
2022-08-02T07:50:05.841Z,97716.94
2022-08-02T07:52:32.402Z,97710.06
2022-08-02T07:54:58.930Z,97702.34
2022-08-02T07:57:25.483Z,97708.38
2022-08-02T07:59:52.189Z,97698.09
2022-08-02T08:02:18.804Z,97699.78
2022-08-02T08:04:45.474Z,97454.69
2022-08-02T08:07:12.096Z,97696.34
2022-08-02T08:09:41.725Z,97692.09
2022-08-02T08:12:09.308Z,97687.81
2022-08-02T08:14:36.243Z,97686.97
2022-08-02T08:17:03.463Z,97680.13
2022-08-02T08:19:50.217Z,97683.56
2022-08-02T08:22:16.574Z,97681.84
2022-08-02T08:24:43.233Z,97687.03
2022-08-02T08:27:14.502Z,97682.75
2022-08-02T08:29:42.475Z,97687.91
2022-08-02T08:32:12.797Z,97696.47
2022-08-02T08:34:42.647Z,97696.50
2022-08-02T08:37:09.253Z,97687.94
2022-08-02T08:39:58.366Z,97688.78
2022-08-02T08:42:28.854Z,97690.53
2022-08-02T08:44:56.566Z,97693.94
2022-08-02T08:47:23.888Z,97694.81
2022-08-02T08:49:53.352Z,97687.09
2022-08-02T08:52:20.295Z,97693.97
2022-08-02T08:54:48.658Z,97683.59
2022-08-02T08:57:16.327Z,97685.34
2022-08-02T08:59:42.851Z,97689.72
2022-08-02T09:02:19.745Z,97682.00
2022-08-02T09:04:52.955Z,97691.44
2022-08-02T09:07:22.821Z,97681.91
2022-08-02T09:09:49.355Z,97689.72
2022-08-02T09:12:16.768Z,97693.97
2022-08-02T09:14:43.316Z,97694.88
2022-08-02T09:17:12.138Z,97690.53
2022-08-02T09:19:38.776Z,97692.25
2022-08-02T09:22:13.145Z,97700.88
2022-08-02T09:24:50.243Z,97706.88
2022-08-02T09:27:18.848Z,97691.44
2022-08-02T09:32:46.488Z,97692.34
2022-08-02T09:35:14.046Z,97696.63
2022-08-02T09:37:41.398Z,97693.22
2022-08-02T09:40:10.773Z,97696.63
2022-08-02T09:42:37.510Z,97694.06
2022-08-02T09:45:04.329Z,97694.06
2022-08-02T09:47:31.338Z,97707.78
2022-08-02T09:49:58.441Z,97701.81
2022-08-02T09:52:43.357Z,97705.22
2022-08-02T09:55:11.376Z,97704.38
2022-08-02T09:57:40.876Z,97705.25
2022-08-02T10:00:16.138Z,97701.81
2022-08-02T10:03:06.828Z,97702.69
2022-08-02T10:05:49.547Z,97705.25
2022-08-02T10:08:22.491Z,97698.41
2022-08-02T10:10:49.056Z,97688.94
2022-08-02T10:13:21.667Z,97694.97
2022-08-02T10:15:50.461Z,97687.25
2022-08-02T10:18:37.142Z,97689.84
2022-08-02T10:21:03.976Z,97689.84
2022-08-02T10:23:34.048Z,97677.69
2022-08-02T10:26:00.612Z,97676.97
2022-08-02T10:28:31.627Z,97673.47
2022-08-02T10:30:59.501Z,97680.44
2022-08-02T10:33:27.069Z,97672.72
2022-08-02T10:36:04.286Z,97657.16
2022-08-02T10:38:34.088Z,97664.13
2022-08-02T10:41:00.925Z,97656.41
2022-08-02T10:43:36.391Z,97652.16
2022-08-02T10:46:23.004Z,97642.66
2022-08-02T10:49:36.732Z,97647.00
2022-08-02T10:52:01.743Z,97637.56
2022-08-02T10:54:31.184Z,97635.88
2022-08-02T10:56:58.495Z,97627.28
2022-08-02T10:59:28.831Z,97627.28
2022-08-02T11:02:02.130Z,97633.28
2022-08-02T11:04:29.874Z,97623.00
2022-08-02T11:07:18.461Z,97620.44
2022-08-02T11:09:45.811Z,97623.88
2022-08-02T11:12:16.502Z,97538.13
2022-08-02T11:14:44.840Z,97622.94
2022-08-02T11:17:12.272Z,97630.66
2022-08-02T11:20:12.948Z,97639.31
2022-08-02T11:22:40.096Z,97637.59
2022-08-02T11:25:22.239Z,97635.88
2022-08-02T11:27:49.033Z,97631.59
2022-08-02T11:30:15.744Z,97635.00
2022-08-02T11:32:42.352Z,97630.72
2022-08-02T11:35:09.489Z,97633.28
2022-08-02T11:37:37.574Z,97634.16
2022-08-02T11:40:19.427Z,97629.84
2022-08-02T11:42:50.349Z,97623.84
2022-08-02T11:45:20.902Z,97620.44
2022-08-02T11:47:49.856Z,97619.56
2022-08-02T11:50:17.188Z,97618.72
2022-08-02T11:52:44.115Z,97602.34
2022-08-02T11:55:10.906Z,97613.56
2022-08-02T11:58:04.837Z,97605.84
2022-08-02T12:00:30.290Z,97601.50
2022-08-02T12:02:57.484Z,97610.13
2022-08-02T12:05:51.182Z,97604.13
2022-08-02T12:08:10.639Z,97605.84
2022-08-02T12:10:38.197Z,97596.41
2022-08-02T12:13:04.802Z,97593.75
2022-08-02T12:15:42.216Z,97596.41
2022-08-02T12:18:28.477Z,97598.16
2022-08-02T12:20:55.026Z,97593.81
2022-08-02T12:23:21.607Z,97600.72
2022-08-02T12:26:06.406Z,97593.84
2022-08-02T12:28:39.093Z,97587.88
2022-08-02T12:31:13.378Z,97593.00
2022-08-02T12:33:53.500Z,97594.69
2022-08-02T12:36:24.013Z,97596.41
2022-08-02T12:38:54.421Z,97592.16
2022-08-02T12:41:30.804Z,97594.72
2022-08-02T12:43:58.621Z,97579.22
2022-08-02T12:46:25.277Z,97565.41
2022-08-02T12:49:16.044Z,97575.84
2022-08-02T12:51:54.852Z,97571.50
2022-08-02T12:54:38.496Z,97574.16
2022-08-02T12:57:12.026Z,97571.56
2022-08-02T12:59:39.835Z,97563.84
2022-08-02T13:02:07.790Z,97562.88
2022-08-02T13:04:34.568Z,97570.69
2022-08-02T13:07:01.364Z,97574.16
2022-08-02T13:09:29.494Z,97567.28
2022-08-02T13:11:56.169Z,97561.22
2022-08-02T13:14:22.699Z,97566.38
2022-08-02T13:16:49.548Z,97557.81
2022-08-02T13:19:16.234Z,97562.97
2022-08-02T13:22:01.396Z,97557.81
2022-08-02T13:24:39.850Z,97559.53
2022-08-02T13:27:09.210Z,97545.75
2022-08-02T13:29:37.248Z,97556.09
2022-08-02T13:32:03.929Z,97542.34
2022-08-02T13:34:30.504Z,97546.66
2022-08-02T13:36:57.044Z,97542.34
2022-08-02T13:39:23.600Z,97531.19
2022-08-02T13:41:50.133Z,97543.22
2022-08-02T13:44:16.728Z,97537.19
2022-08-02T13:46:45.340Z,97532.81
2022-08-02T13:49:18.304Z,97530.28
2022-08-02T13:51:46.771Z,97531.19
2022-08-02T13:54:13.325Z,97531.19
2022-08-02T13:56:39.866Z,97530.31
2022-08-02T13:59:55.438Z,97532.03
2022-08-02T14:01:54.044Z,97519.97
2022-08-02T14:04:20.668Z,97532.91
2022-08-02T14:06:47.201Z,97532.03
2022-08-02T14:09:15.677Z,97523.47
2022-08-02T14:11:44.541Z,97518.31
2022-08-02T14:14:15.966Z,97524.31
2022-08-02T14:16:43.457Z,97521.72
2022-08-02T14:19:16.539Z,97514.78
2022-08-02T14:21:46.444Z,97512.28
2022-08-02T14:24:14.004Z,97518.31
2022-08-02T14:26:40.574Z,97514.88
2022-08-02T14:29:07.153Z,97516.59
2022-08-02T14:31:33.703Z,97517.44
2022-08-02T14:34:00.315Z,97509.72
2022-08-02T14:36:27.867Z,97514.88
2022-08-02T14:38:55.367Z,97515.75
2022-08-02T14:41:22.006Z,97516.56
2022-08-02T14:44:07.226Z,97514.00
2022-08-02T14:46:38.483Z,97512.28
2022-08-02T14:49:07.514Z,97510.56
2022-08-02T14:51:37.709Z,97505.44
2022-08-02T14:54:05.520Z,97500.22
2022-08-02T14:56:35.170Z,97505.41
2022-08-02T14:59:01.801Z,97506.25
2022-08-02T15:01:28.447Z,97505.41
2022-08-02T15:03:55.128Z,97503.69
2022-08-02T15:06:21.711Z,97503.66
2022-08-02T15:08:48.270Z,97500.25
2022-08-02T15:11:14.832Z,97511.41
2022-08-02T15:13:42.769Z,97502.84
2022-08-02T15:16:09.538Z,97446.63
2022-08-02T15:18:36.131Z,97504.56
2022-08-02T15:21:08.029Z,97497.72
2022-08-02T15:23:49.356Z,97503.69
2022-08-02T15:26:15.910Z,97496.84
2022-08-02T15:28:42.469Z,97491.72
2022-08-02T15:31:08.997Z,97495.97
2022-08-02T15:33:35.519Z,97492.59
2022-08-02T15:36:02.165Z,97493.38
2022-08-02T15:38:28.704Z,97476.97
2022-08-02T15:40:55.243Z,97495.94
2022-08-02T15:43:21.796Z,97489.16
2022-08-02T15:45:48.404Z,97496.84
2022-08-02T15:48:14.932Z,97494.28
2022-08-02T15:50:41.475Z,97498.56
2022-08-02T15:53:08.008Z,97485.63
2022-08-02T15:55:39.845Z,97496.84
2022-08-02T15:58:22.317Z,97498.56
2022-08-02T16:00:48.939Z,97491.69
2022-08-02T16:03:15.511Z,97497.69
2022-08-02T16:05:42.035Z,97508.84
2022-08-02T16:08:08.630Z,97498.56
2022-08-02T16:10:35.224Z,97495.16
2022-08-02T16:13:20.465Z,97491.72
2022-08-02T16:15:47.003Z,97497.72
2022-08-02T16:18:13.568Z,97493.41
2022-08-02T16:20:40.371Z,97497.72
2022-08-02T16:23:06.922Z,97498.56
2022-08-02T16:25:34.444Z,97495.16
2022-08-02T16:28:07.441Z,97492.59
2022-08-02T16:30:34.768Z,97492.59
2022-08-02T16:33:01.378Z,97486.53
2022-08-02T16:35:30.988Z,97486.63
2022-08-02T16:37:57.565Z,97494.34
2022-08-02T16:40:24.211Z,97483.13
2022-08-02T16:42:51.275Z,97491.75
2022-08-02T16:45:20.248Z,97484.91
2022-08-02T16:47:56.045Z,97481.50
2022-08-02T16:50:27.457Z,97476.31
2022-08-02T16:52:58.619Z,97471.19
2022-08-02T16:55:25.860Z,97473.78
2022-08-02T16:57:56.997Z,97473.75
2022-08-02T17:00:23.809Z,97471.22
2022-08-02T17:02:50.375Z,97478.09
2022-08-02T17:05:16.957Z,97482.38
2022-08-02T17:08:16.700Z,97478.09
2022-08-02T17:10:30.908Z,97478.97
2022-08-02T17:12:57.773Z,97483.22
2022-08-02T17:16:16.499Z,97477.19
2022-08-02T17:18:11.304Z,97480.69
2022-08-02T17:20:37.859Z,97443.56
2022-08-02T17:23:06.187Z,97484.97
2022-08-02T17:25:32.740Z,97481.56
2022-08-02T17:27:59.317Z,97481.56
2022-08-02T17:30:26.267Z,97473.78
2022-08-02T17:32:53.809Z,97479.03
2022-08-02T17:35:20.364Z,97475.59
2022-08-02T17:37:54.633Z,97479.88
2022-08-02T17:40:26.910Z,97476.38
2022-08-02T17:42:53.477Z,97485.81
2022-08-02T17:45:25.662Z,97483.31
2022-08-02T17:48:04.736Z,97482.47
2022-08-02T17:50:32.765Z,97482.47
2022-08-02T17:52:59.713Z,97489.31
2022-08-02T17:55:26.704Z,97495.34
2022-08-02T17:57:57.057Z,97473.72
2022-08-02T18:00:29.585Z,97497.91
2022-08-02T18:02:56.150Z,97492.78
2022-08-02T18:08:11.013Z,97496.19
2022-08-02T18:10:40.563Z,97497.94
2022-08-02T18:13:07.156Z,97494.50
2022-08-02T18:15:34.297Z,97497.06
2022-08-02T18:18:00.927Z,97487.66
2022-08-02T18:20:27.492Z,97491.06
2022-08-02T18:22:58.287Z,97490.22
2022-08-02T18:25:37.342Z,97486.75
2022-08-02T18:28:12.341Z,97497.09
2022-08-02T18:30:39.197Z,97492.78
2022-08-02T18:33:58.495Z,97498.78
2022-08-02T18:35:52.473Z,97493.63
2022-08-02T18:38:22.033Z,97492.78
2022-08-02T18:40:50.647Z,97497.06
2022-08-02T18:43:18.188Z,97495.38
2022-08-02T18:46:06.950Z,97502.22
2022-08-02T18:48:31.306Z,97501.34
2022-08-02T18:50:57.837Z,97512.50
2022-08-02T18:53:39.248Z,97497.06
2022-08-02T18:56:08.657Z,97497.06
2022-08-02T18:58:35.249Z,97499.63
2022-08-02T19:01:05.324Z,97502.22
2022-08-02T19:03:41.767Z,97503.09
2022-08-02T19:06:19.470Z,97503.06
2022-08-02T19:08:47.327Z,97509.94
2022-08-02T19:11:35.246Z,97512.50
2022-08-02T19:14:02.208Z,97510.78
2022-08-02T19:16:37.062Z,97508.19
2022-08-02T19:19:05.636Z,97512.47
2022-08-02T19:24:18.987Z,97522.78
2022-08-02T19:26:52.044Z,97512.44
2022-08-02T19:29:42.421Z,97496.78
2022-08-02T19:32:39.359Z,97522.78
2022-08-02T19:34:53.074Z,97524.47
2022-08-02T19:37:19.674Z,97528.78
2022-08-02T19:39:46.219Z,97533.06
2022-08-02T19:42:14.634Z,97532.19
2022-08-02T19:44:45.067Z,97523.56
2022-08-02T19:47:12.464Z,97524.38
2022-08-02T19:49:46.265Z,97531.38
2022-08-02T19:52:21.100Z,97526.97
2022-08-02T19:54:54.291Z,97539.09
2022-08-02T19:57:22.804Z,97535.56
2022-08-02T19:59:49.665Z,97540.78
2022-08-02T20:02:17.084Z,97537.34
2022-08-02T20:04:49.801Z,97539.91
2022-08-02T20:07:24.259Z,97540.78
2022-08-02T20:10:03.929Z,97533.81
2022-08-02T20:12:35.257Z,97540.78
2022-08-02T20:15:07.729Z,97543.28
2022-08-02T20:17:41.169Z,97541.56
2022-08-02T20:20:13.951Z,97548.44
2022-08-02T20:22:59.172Z,97536.38
2022-08-02T20:25:26.415Z,97537.28
2022-08-02T20:27:55.711Z,97544.13
2022-08-02T20:30:25.451Z,97532.09
2022-08-02T20:32:58.815Z,97531.25
2022-08-02T20:35:29.068Z,97531.25
2022-08-02T20:38:01.997Z,97522.66
2022-08-02T20:40:29.423Z,97529.53
2022-08-02T20:42:56.012Z,97533.84
2022-08-02T20:45:25.180Z,97525.16
2022-08-02T20:50:54.157Z,97522.66
2022-08-02T20:53:23.870Z,97525.22
2022-08-02T20:55:53.485Z,97527.78
2022-08-02T20:58:20.332Z,97528.66
2022-08-02T21:00:54.004Z,97536.38
2022-08-02T21:03:20.605Z,97535.50
2022-08-02T21:05:55.884Z,97531.19
2022-08-02T21:08:22.716Z,97534.63
2022-08-02T21:10:51.985Z,97536.34
2022-08-02T21:13:22.466Z,97535.47
2022-08-02T21:15:51.282Z,97529.41
2022-08-02T21:18:22.041Z,97538.06
2022-08-02T21:20:59.081Z,97537.19
2022-08-02T21:23:28.649Z,97532.03
2022-08-02T21:28:44.864Z,97526.06
2022-08-02T21:31:15.490Z,97531.22
2022-08-02T21:33:58.255Z,97530.34
2022-08-02T21:36:31.446Z,97527.78
2022-08-02T21:39:05.410Z,97536.38
2022-08-02T21:41:39.176Z,97517.50
2022-08-02T21:44:13.099Z,97532.09
2022-08-02T21:46:40.806Z,97529.50
2022-08-02T21:49:11.329Z,97532.09
2022-08-02T21:51:39.102Z,97534.69
2022-08-02T21:54:17.953Z,97532.97
2022-08-02T21:56:46.145Z,97530.41
2022-08-02T22:02:01.435Z,97538.16
2022-08-02T22:04:28.044Z,97535.56
2022-08-02T22:06:55.309Z,97537.34
2022-08-02T22:09:44.380Z,97537.34
2022-08-02T22:12:10.062Z,97536.50
2022-08-02T22:14:39.856Z,97538.22
2022-08-02T22:17:08.673Z,97544.22
2022-08-02T22:19:35.916Z,97541.66
2022-08-02T22:22:02.456Z,97544.22
2022-08-02T22:24:29.672Z,97543.38
2022-08-02T22:26:56.969Z,97541.69
2022-08-02T22:29:23.508Z,97544.25
2022-08-02T22:31:50.090Z,97550.25
2022-08-02T22:34:37.120Z,97546.81
2022-08-02T22:37:05.732Z,97543.41
2022-08-02T22:39:33.974Z,97546.81
2022-08-02T22:42:05.965Z,97552.00
2022-08-02T22:47:19.860Z,97550.25
2022-08-02T22:49:53.158Z,97552.84
2022-08-02T22:52:24.035Z,97558.84
2022-08-02T22:54:50.799Z,97555.41
2022-08-02T22:57:17.648Z,97552.00
2022-08-02T22:58:47.818Z,97515.94
2022-08-02T22:58:56.234Z,97528.66
2022-08-02T22:58:57.100Z,97490.19
2022-08-02T22:59:02.659Z,97535.50
2022-08-02T22:59:11.024Z,97569.03
2022-08-02T22:59:56.716Z,97561.44
2022-08-02T23:02:24.999Z,97555.41
2022-08-02T23:04:51.826Z,97552.84
2022-08-02T23:07:18.344Z,97548.56
2022-08-02T23:09:44.888Z,97559.72
2022-08-02T23:12:11.459Z,97559.75
2022-08-02T23:14:37.998Z,97556.28
2022-08-02T23:17:23.017Z,97560.56
2022-08-02T23:19:52.173Z,97561.44
2022-08-02T23:22:29.738Z,97554.59
2022-08-02T23:24:59.089Z,97558.88
2022-08-02T23:27:25.631Z,97558.03
2022-08-02T23:29:52.186Z,97562.31
2022-08-02T23:32:18.908Z,97566.59
2022-08-02T23:34:50.112Z,97567.47
2022-08-02T23:37:16.684Z,97567.47
2022-08-02T23:39:43.271Z,97570.88
2022-08-02T23:42:09.976Z,97571.75
2022-08-02T23:44:36.551Z,97562.31
2022-08-02T23:47:03.153Z,97562.31
2022-08-02T23:49:29.816Z,97567.47
2022-08-02T23:52:01.254Z,97564.03
2022-08-02T23:54:28.742Z,97565.75
2022-08-02T23:56:55.632Z,97564.03
2022-08-02T23:59:22.223Z,97561.47
